ADDS METAR Data INFO
IDs: Format: Raw Decoded Include TAF

Data at: 1851 UTC 16 Dec 2017

KGOK 161753Z AUTO 23018G25KT 10SM CLR 14/M03 A2995 RMK AO2 PK WND 23027/1710 SLP144 T01391033 10139 20033 58012
KGOK 161653Z AUTO 22018G27KT 10SM CLR 12/M03 A2998 RMK AO2 PK WND 20027/1649 SLP156 T01221033
KGOK 161553Z AUTO 21017G24KT 10SM CLR 10/M04 A2999 RMK AO2 SLP161 T01001039
KGOK 161453Z AUTO 19014KT 10SM CLR 07/M04 A2999 RMK AO2 SLP161 T00671039 53005
KGOK 161353Z AUTO 20009KT 10SM CLR 04/M04 A2998 RMK AO2 SLP159 T00441039
KGOK 161253Z AUTO 19009KT 10SM CLR 04/M04 A2998 RMK AO2 SLP159 T00441039
KGOK 161153Z AUTO 19012KT 10SM CLR 05/M04 A2997 RMK AO2 SLP156 T00501039 10067 20050 56008
KGOK 161053Z AUTO 20010KT 10SM CLR 05/M04 A2997 RMK AO2 SLP155 T00501044
KGOK 160953Z AUTO 20009KT 10SM CLR 06/M04 A2999 RMK AO2 SLP159 T00561044
KGOK 160853Z AUTO 20010KT 10SM CLR 06/M04 A3000 RMK AO2 SLP162 T00561044 56017
KGOK 160753Z AUTO 20012KT 10SM CLR 07/M05 A3002 RMK AO2 SLP168 T00671050
KGOK 160653Z AUTO 20011KT 10SM CLR 07/M05 A3003 RMK AO2 SLP174 T00671050
KGOK 160553Z AUTO 20014KT 10SM CLR 07/M05 A3005 RMK AO2 SLP181 T00671050 10072 20039 401061044 58006
KGOK 160453Z AUTO 20011KT 10SM CLR 07/M05 A3006 RMK AO2 SLP185 T00671050
KGOK 160353Z AUTO 18009KT 10SM CLR 04/M05 A3006 RMK AO2 SLP187 T00391050
KGOK 160253Z AUTO 18009KT 10SM CLR 05/M05 A3007 RMK AO2 SLP191 T00501050 56017
KGOK 160153Z AUTO 17008KT 10SM CLR 05/M04 A3008 RMK AO2 SLP197 T00501044
KGOK 160053Z AUTO 17007KT 10SM CLR 05/M04 A3010 RMK AO2 SLP202 T00501044
KGOK 152353Z AUTO 19006KT 10SM CLR 06/M04 A3012 RMK AO2 SLP207 T00611044 10106 20061 57008
KGOK 152253Z AUTO 23007KT 10SM CLR 09/M04 A3013 RMK AO2 SLP208 T00941044
KGOK 152153Z AUTO 24010KT 10SM CLR 11/M05 A3014 RMK AO2 SLP211 T01061050
KGOK 152053Z AUTO 23008KT 10SM CLR 10/M05 A3014 RMK AO2 SLP213 T01001050 56038
KGOK 151953Z AUTO 26007KT 10SM CLR 09/M05 A3018 RMK AO2 SLP225 T00941050
KGOK 151853Z AUTO 27005KT 10SM CLR 08/M03 A3021 RMK AO2 SLP237 T00831033
KGOK 151753Z AUTO 28008KT 10SM CLR 07/M02 A3026 RMK AO2 SLP253 T00721022 10072 21044 58009
KGOK 151653Z AUTO 27007KT 10SM CLR 04/M02 A3028 RMK AO2 SLP262 T00391022
KGOK 151553Z AUTO 25004KT 10SM CLR 02/M03 A3029 RMK AO2 SLP265 T00171028
KGOK 151453Z AUTO 25003KT 10SM CLR M01/M04 A3029 RMK AO2 SLP265 T10111039 51010
KGOK 151353Z AUTO 19004KT 10SM CLR M03/M04 A3028 RMK AO2 SLP266 T10331044
KGOK 151253Z AUTO 31003KT 10SM CLR M01/M04 A3028 RMK AO2 SLP262 T10111039
KGOK 151153Z AUTO 32004KT 10SM CLR M01/M03 A3026 RMK AO2 SLP255 T10111033 10044 21011 51004
KGOK 151053Z AUTO 32005KT 10SM CLR 00/M03 A3025 RMK AO2 SLP252 T00001028
KGOK 150953Z AUTO 31004KT 10SM CLR 00/M02 A3025 RMK AO2 SLP252 T00001022
KGOK 150853Z AUTO 32005KT 10SM CLR 02/M02 A3024 RMK AO2 SLP248 T00171017 53009
KGOK 150753Z AUTO 32006KT 10SM CLR 03/M01 A3023 RMK AO2 SLP241 T00281011
KGOK 150653Z AUTO 32006KT 10SM FEW075 04/M01 A3023 RMK AO2 SLP240 T00391006